aviador You're here:

EPPO Decoded Metar

POZNAN in POLAND
Report Time2018-07-20 20:00:00
UTC Time2018-07-20 20:07:05
Flight Rules vfr VFR
Wind250° at 01 kt
W.Decomp.*RWY 28: 0.8 kt HW 0.6 kt LCW
W.Rank250° ranks 3
Current wind is below 250° avg. (8.2)
Visibility9999 m
Phenomena:N/A
Clouds:N/A
Expected CloudBase > 1,200 ft AGL from Temp-Dew spread
CeilingNone
Temp16°C (ISA +2)
Dew Point13°C (83% RH)
QNH1012 hPa
Density Alt725 ft
Elevation302 ft
Report Wrong Elevation
Raw Report
METAR EPPO 202000Z 25001KT CAVOK 16/13 Q1012=

Extra information for EPPO:More info

Metar Taf Metar & Taf Last 4 Metars F.Rules Stats Wind Profile Meteogram Temp Stats Airport Information Weather charts Add Link Nearby VenuesMetar ALERT Operation Metar Decoded Social comments